createdAt,value
2023-07-25T00:01:58.012Z,99263.55
2023-07-25T00:04:26.001Z,99260.36
2023-07-25T00:06:53.856Z,99259.55
2023-07-25T00:09:21.626Z,99256.77
2023-07-25T00:11:49.493Z,99252.25
2023-07-25T00:14:17.382Z,99248.20
2023-07-25T00:16:45.386Z,99248.38
2023-07-25T00:19:13.526Z,99251.55
2023-07-25T00:21:41.314Z,99253.44
2023-07-25T00:24:09.048Z,99257.81
2023-07-25T00:26:37.117Z,99262.11
2023-07-25T00:29:05.555Z,99273.04
2023-07-25T00:31:34.665Z,99283.73
2023-07-25T00:34:05.241Z,99276.73
2023-07-25T00:36:33.515Z,99286.09
2023-07-25T00:39:01.428Z,99296.95
2023-07-25T00:41:29.713Z,99300.45
2023-07-25T00:43:57.848Z,99305.17
2023-07-25T00:46:26.341Z,99309.71
2023-07-25T00:48:54.927Z,99318.65
2023-07-25T00:51:22.798Z,99320.15
2023-07-25T00:53:51.480Z,99319.65
2023-07-25T00:56:19.827Z,99312.08
2023-07-25T00:58:48.207Z,99306.04
2023-07-25T01:01:16.022Z,99309.02
2023-07-25T01:03:44.198Z,99311.21
2023-07-25T01:06:16.158Z,99307.59
2023-07-25T01:08:48.877Z,99302.61
2023-07-25T01:11:17.376Z,99298.40
2023-07-25T01:13:45.528Z,99293.19
2023-07-25T01:16:16.348Z,99287.77
2023-07-25T01:18:45.384Z,99287.38
2023-07-25T01:21:13.676Z,99286.27
2023-07-25T01:23:42.501Z,99277.45
2023-07-25T01:26:10.520Z,99267.14
2023-07-25T01:28:38.787Z,99257.41
2023-07-25T01:31:06.644Z,99255.02
2023-07-25T01:33:34.374Z,99254.09
2023-07-25T01:36:02.778Z,99256.38
2023-07-25T01:38:30.738Z,99259.09
2023-07-25T01:40:58.632Z,99247.90
2023-07-25T01:43:26.618Z,99237.98
2023-07-25T01:45:54.437Z,99242.02
2023-07-25T01:48:22.736Z,99248.02
2023-07-25T01:50:50.699Z,99247.36
2023-07-25T01:53:18.709Z,99259.93
2023-07-25T01:55:47.157Z,99264.29
2023-07-25T01:58:15.103Z,99267.25
2023-07-25T02:00:42.774Z,99275.69
2023-07-25T02:03:12.147Z,99277.91
2023-07-25T02:05:40.249Z,99281.55
2023-07-25T02:08:08.044Z,99278.98
2023-07-25T02:10:35.851Z,99281.09
2023-07-25T02:13:03.865Z,99285.30
2023-07-25T02:15:31.690Z,99284.83
2023-07-25T02:18:00.408Z,99275.59
2023-07-25T02:20:30.937Z,99293.84
2023-07-25T02:22:59.358Z,99320.85
2023-07-25T02:25:27.586Z,99349.70
2023-07-25T02:27:55.639Z,99396.89
2023-07-25T02:30:23.365Z,99450.13
2023-07-25T02:32:51.241Z,99489.38
2023-07-25T02:35:19.041Z,99478.56
2023-07-25T02:37:46.905Z,99465.36
2023-07-25T02:40:14.631Z,99449.77
2023-07-25T02:42:42.868Z,99483.41
2023-07-25T02:45:11.485Z,99538.73
2023-07-25T02:47:39.927Z,99573.95
2023-07-25T02:50:08.233Z,99596.64
2023-07-25T02:52:36.385Z,99615.98
2023-07-25T02:55:04.692Z,99608.66
2023-07-25T02:57:32.399Z,99597.34
2023-07-25T03:00:00.781Z,99610.23
2023-07-25T03:02:28.826Z,99609.30
2023-07-25T03:04:57.443Z,99580.05
2023-07-25T03:07:25.161Z,99555.31
2023-07-25T03:09:53.070Z,99518.29
2023-07-25T03:12:21.303Z,99476.36
2023-07-25T03:14:49.278Z,99438.15
2023-07-25T03:17:17.518Z,99381.70
2023-07-25T03:19:45.654Z,99342.53
2023-07-25T03:22:13.509Z,99335.01
2023-07-25T03:24:41.936Z,99352.52
2023-07-25T03:27:09.786Z,99347.31
2023-07-25T03:29:37.822Z,99283.29
2023-07-25T03:32:06.233Z,99244.77
2023-07-25T03:34:34.208Z,99217.70
2023-07-25T03:37:02.084Z,99230.73
2023-07-25T03:39:30.138Z,99256.51
2023-07-25T03:41:57.911Z,99285.22
2023-07-25T03:44:25.853Z,99293.54
2023-07-25T03:46:53.602Z,99306.52
2023-07-25T03:49:21.680Z,99310.74
2023-07-25T03:51:49.440Z,99308.91
2023-07-25T03:54:19.220Z,99305.66
2023-07-25T03:56:46.895Z,99285.86
2023-07-25T03:59:14.678Z,99267.34
2023-07-25T04:01:42.535Z,99267.39
2023-07-25T04:04:10.538Z,99269.27
2023-07-25T04:06:39.235Z,99277.48
2023-07-25T04:09:07.447Z,99283.84
2023-07-25T04:11:35.582Z,99274.18
2023-07-25T04:14:03.838Z,99269.23
2023-07-25T04:16:31.833Z,99264.25
2023-07-25T04:18:59.954Z,99261.92
2023-07-25T04:21:28.115Z,99260.98
2023-07-25T04:23:56.177Z,99264.83
2023-07-25T04:26:24.181Z,99255.54
2023-07-25T04:28:52.271Z,99254.75
2023-07-25T04:31:21.529Z,99248.95
2023-07-25T04:33:49.781Z,99231.65
2023-07-25T04:36:17.958Z,99225.71
2023-07-25T04:38:45.778Z,99227.12
2023-07-25T04:41:13.793Z,99218.48
2023-07-25T04:43:41.839Z,99220.56
2023-07-25T04:46:09.644Z,99220.79
2023-07-25T04:48:37.607Z,99219.85
2023-07-25T04:51:05.704Z,99216.95
2023-07-25T04:53:34.926Z,99217.45
2023-07-25T04:56:02.773Z,99221.70
2023-07-25T04:58:30.811Z,99221.50
2023-07-25T05:00:58.932Z,99222.38
2023-07-25T05:03:27.431Z,99218.84
2023-07-25T05:05:56.260Z,99210.16
2023-07-25T05:08:24.073Z,99210.31
2023-07-25T05:10:52.586Z,99216.67
2023-07-25T05:13:20.704Z,99230.70
2023-07-25T05:15:48.568Z,99232.67
2023-07-25T05:18:16.304Z,99231.76
2023-07-25T05:20:44.467Z,99220.54
2023-07-25T05:23:12.981Z,99215.84
2023-07-25T05:25:41.361Z,99218.45
2023-07-25T05:28:09.114Z,99224.98
2023-07-25T05:30:37.465Z,99220.14
2023-07-25T05:33:05.190Z,99210.66
2023-07-25T05:35:33.101Z,99215.39
2023-07-25T05:38:02.058Z,99219.15
2023-07-25T05:40:29.907Z,99217.77
2023-07-25T05:42:57.843Z,99212.23
2023-07-25T05:45:25.696Z,99216.36
2023-07-25T05:47:53.708Z,99217.59
2023-07-25T05:50:21.442Z,99229.20
2023-07-25T05:52:49.518Z,99225.38
2023-07-25T05:55:17.521Z,99209.84
2023-07-25T05:57:45.464Z,99205.30
2023-07-25T06:00:14.312Z,99209.12
2023-07-25T06:02:42.328Z,99207.33
2023-07-25T06:05:10.411Z,99209.11
2023-07-25T06:07:38.595Z,99209.77
2023-07-25T06:10:07.642Z,99208.64
2023-07-25T06:12:35.451Z,99203.95
2023-07-25T06:15:03.786Z,99195.98
2023-07-25T06:17:31.825Z,99189.33
2023-07-25T06:20:00.229Z,99188.96
2023-07-25T06:22:28.025Z,99197.70
2023-07-25T06:24:55.930Z,99204.79
2023-07-25T06:27:25.670Z,99212.02
2023-07-25T06:29:55.484Z,99228.21
2023-07-25T06:32:23.959Z,99243.92
2023-07-25T06:34:52.019Z,99247.52
2023-07-25T06:37:20.220Z,99248.30
2023-07-25T06:39:47.914Z,99243.77
2023-07-25T06:42:16.315Z,99232.89
2023-07-25T06:44:47.496Z,99229.79
2023-07-25T06:47:15.295Z,99224.82
2023-07-25T06:49:42.964Z,99223.53
2023-07-25T06:52:10.998Z,99225.90
2023-07-25T06:54:39.434Z,99227.39
2023-07-25T06:57:07.465Z,99228.41
2023-07-25T06:59:35.122Z,99225.99
2023-07-25T07:02:03.228Z,99219.60
2023-07-25T07:04:31.144Z,99218.46
2023-07-25T07:06:59.222Z,99213.04
2023-07-25T07:09:27.306Z,99216.73
2023-07-25T07:11:55.741Z,99227.34
2023-07-25T07:14:23.453Z,99228.87
2023-07-25T07:16:51.364Z,99223.64
2023-07-25T07:19:19.554Z,99212.98
2023-07-25T07:21:47.251Z,99207.27
2023-07-25T07:24:15.320Z,99206.85
2023-07-25T07:26:43.276Z,99200.72
2023-07-25T07:29:11.478Z,99187.16
2023-07-25T07:31:39.408Z,99172.11
2023-07-25T07:34:18.359Z,99169.04
2023-07-25T07:36:46.199Z,99172.83
2023-07-25T07:39:14.189Z,99177.16
2023-07-25T07:41:42.323Z,99177.67
2023-07-25T07:44:10.256Z,99179.26
2023-07-25T07:46:38.065Z,99178.37
2023-07-25T07:49:05.941Z,99174.21
2023-07-25T07:51:33.976Z,99179.23
2023-07-25T07:54:01.804Z,99187.83
2023-07-25T07:56:29.879Z,99193.05
2023-07-25T07:58:57.592Z,99190.29
2023-07-25T08:01:26.077Z,99192.30
2023-07-25T08:03:53.964Z,99192.08
2023-07-25T08:06:22.063Z,99185.25
2023-07-25T08:08:49.942Z,99176.66
2023-07-25T08:11:17.888Z,99172.37
2023-07-25T08:13:45.793Z,99170.19
2023-07-25T08:16:13.712Z,99166.73
2023-07-25T08:18:41.536Z,99168.73
2023-07-25T08:21:09.295Z,99174.31
2023-07-25T08:23:36.977Z,99176.77
2023-07-25T08:26:05.018Z,99170.12
2023-07-25T08:28:32.876Z,99158.21
2023-07-25T08:31:01.715Z,99148.21
2023-07-25T08:33:30.262Z,99148.29
2023-07-25T08:35:58.094Z,99148.56
2023-07-25T08:38:26.006Z,99157.73
2023-07-25T08:41:14.343Z,99158.19
2023-07-25T08:43:43.854Z,99150.77
2023-07-25T08:46:12.787Z,99157.54
2023-07-25T08:48:41.704Z,99158.21
2023-07-25T08:51:20.906Z,99161.52
2023-07-25T08:53:57.103Z,99169.04
2023-07-25T08:56:26.245Z,99167.88
2023-07-25T08:58:55.241Z,99173.23
2023-07-25T09:01:23.167Z,99169.13
2023-07-25T09:03:52.730Z,99153.48
2023-07-25T09:06:21.229Z,99149.81
2023-07-25T09:08:49.173Z,99144.15
2023-07-25T09:11:20.618Z,99140.52
2023-07-25T09:13:51.724Z,99125.34
2023-07-25T09:16:19.622Z,99117.67
2023-07-25T09:18:47.570Z,99113.20
2023-07-25T09:21:16.202Z,99116.14
2023-07-25T09:23:54.241Z,99115.71
2023-07-25T09:26:22.706Z,99098.63
2023-07-25T09:28:52.096Z,99088.27
2023-07-25T09:31:21.403Z,99085.37
2023-07-25T09:33:50.371Z,99080.45
2023-07-25T09:36:19.748Z,99072.04
2023-07-25T09:38:48.957Z,99067.00
2023-07-25T09:41:17.867Z,99066.81
2023-07-25T09:43:45.861Z,99058.17
2023-07-25T09:46:13.871Z,99051.25
2023-07-25T09:48:45.900Z,99037.28
2023-07-25T09:51:14.370Z,99035.97
2023-07-25T09:53:43.451Z,99034.38
2023-07-25T09:56:11.586Z,99024.35
2023-07-25T09:58:50.892Z,99019.02
2023-07-25T10:01:28.233Z,99019.71
2023-07-25T10:03:56.581Z,99021.15
2023-07-25T10:06:25.285Z,99025.34
2023-07-25T10:08:54.335Z,99020.73
2023-07-25T10:11:23.747Z,99016.77
2023-07-25T10:13:52.200Z,99007.04
2023-07-25T10:16:21.023Z,98998.58
2023-07-25T10:18:55.966Z,98999.52
2023-07-25T10:21:30.732Z,99004.60
2023-07-25T10:24:01.437Z,99016.69
2023-07-25T10:26:29.623Z,99011.08
2023-07-25T10:29:00.864Z,99010.42
2023-07-25T10:31:34.921Z,99008.27
2023-07-25T10:34:03.843Z,99009.17
2023-07-25T10:36:31.601Z,99002.96
2023-07-25T10:39:07.361Z,98997.38
2023-07-25T10:41:35.403Z,98999.66
2023-07-25T10:44:04.010Z,99008.45
2023-07-25T10:46:33.304Z,99016.48
2023-07-25T10:49:02.565Z,99014.61
2023-07-25T10:51:52.581Z,99012.25
2023-07-25T10:54:22.402Z,99014.10
2023-07-25T10:57:11.569Z,99017.98
2023-07-25T10:59:59.983Z,99014.66
2023-07-25T11:02:35.398Z,99021.39
2023-07-25T11:05:15.888Z,99021.11
2023-07-25T11:07:47.122Z,99020.31
2023-07-25T11:10:24.958Z,99024.02
2023-07-25T11:12:55.288Z,99027.42
2023-07-25T11:15:36.497Z,99034.16
2023-07-25T11:18:11.682Z,99053.49
2023-07-25T11:20:39.795Z,99061.29
2023-07-25T11:23:08.225Z,99060.96
2023-07-25T11:25:36.260Z,99057.40
2023-07-25T11:28:04.394Z,99057.05
2023-07-25T11:30:32.515Z,99052.91
2023-07-25T11:33:00.561Z,99051.04
2023-07-25T11:35:30.664Z,99051.15
2023-07-25T11:38:03.901Z,99048.44
2023-07-25T11:40:32.819Z,99051.47
2023-07-25T11:43:01.142Z,99046.52
2023-07-25T11:45:29.492Z,99042.30
2023-07-25T11:47:58.986Z,99044.58
2023-07-25T11:50:30.490Z,99042.23
2023-07-25T11:53:02.281Z,99036.52
2023-07-25T11:55:30.783Z,99038.34
2023-07-25T11:58:02.786Z,99033.02
2023-07-25T12:00:43.410Z,99028.61
2023-07-25T12:03:18.862Z,99021.66
2023-07-25T12:05:53.564Z,99009.28
2023-07-25T12:08:35.797Z,98996.29
2023-07-25T12:11:04.266Z,99003.02
2023-07-25T12:13:32.290Z,99008.39
2023-07-25T12:16:02.090Z,99011.43
2023-07-25T12:18:31.307Z,99013.77
2023-07-25T12:21:01.832Z,99010.60
2023-07-25T12:23:30.470Z,99012.46
2023-07-25T12:26:01.051Z,99021.15
2023-07-25T12:28:42.237Z,99026.46
2023-07-25T12:31:10.131Z,99033.79
2023-07-25T12:33:39.111Z,99030.52
2023-07-25T12:36:07.295Z,99027.77
2023-07-25T12:38:35.379Z,99022.64
2023-07-25T12:41:04.048Z,99019.95
2023-07-25T12:43:31.899Z,99022.91
2023-07-25T12:46:00.036Z,99019.17
2023-07-25T12:48:27.860Z,99015.73
2023-07-25T12:50:55.682Z,99018.95
2023-07-25T12:53:24.093Z,99020.25
2023-07-25T12:55:53.915Z,99012.83
2023-07-25T12:58:21.935Z,99003.31
2023-07-25T13:00:50.291Z,99001.23
2023-07-25T13:03:22.348Z,99001.36
2023-07-25T13:05:50.440Z,99008.45
2023-07-25T13:08:18.885Z,99021.24
2023-07-25T13:10:48.507Z,99014.33
2023-07-25T13:13:16.237Z,99010.75
2023-07-25T13:15:44.794Z,98993.27
2023-07-25T13:18:13.300Z,98944.79
2023-07-25T13:20:41.140Z,98941.76
2023-07-25T13:23:14.094Z,98972.52
2023-07-25T13:25:44.503Z,99004.75
2023-07-25T13:28:13.077Z,99007.67
2023-07-25T13:30:41.530Z,99007.28
2023-07-25T13:33:09.519Z,99025.46
2023-07-25T13:35:37.854Z,99032.40
2023-07-25T13:38:07.708Z,99043.12
2023-07-25T13:40:35.413Z,99054.18
2023-07-25T13:43:03.839Z,99072.85
2023-07-25T13:45:45.729Z,99076.52
2023-07-25T13:48:19.644Z,99077.21
2023-07-25T13:50:53.676Z,99078.27
2023-07-25T13:53:23.333Z,99084.77
2023-07-25T13:55:51.908Z,99181.98
2023-07-25T14:00:50.371Z,99275.02
2023-07-25T14:03:18.204Z,99203.44
2023-07-25T14:05:45.998Z,99180.45
2023-07-25T14:08:14.016Z,99144.41
2023-07-25T14:10:42.292Z,99113.59
2023-07-25T14:13:10.344Z,99072.38
2023-07-25T14:15:38.337Z,99060.05
2023-07-25T14:18:06.092Z,99066.38
2023-07-25T14:20:34.326Z,99063.30
2023-07-25T14:23:02.065Z,99077.72
2023-07-25T14:25:30.114Z,99078.52
2023-07-25T14:27:57.922Z,99020.95
2023-07-25T14:30:26.287Z,99006.39
2023-07-25T14:32:54.548Z,99041.15
2023-07-25T14:35:22.723Z,99045.23
2023-07-25T14:37:56.786Z,99046.41
2023-07-25T14:40:26.120Z,99046.11
2023-07-25T14:42:54.223Z,99045.08
2023-07-25T14:45:27.336Z,99018.98
2023-07-25T14:48:01.601Z,98993.29
2023-07-25T14:50:29.893Z,98975.78
2023-07-25T14:52:57.944Z,98956.44
2023-07-25T14:55:26.097Z,98943.20
2023-07-25T14:57:54.361Z,98942.45
2023-07-25T15:00:22.276Z,98932.34
2023-07-25T15:02:50.704Z,98922.98
2023-07-25T15:05:18.817Z,98905.95
2023-07-25T15:07:47.242Z,98916.48
2023-07-25T15:10:15.423Z,98913.23
2023-07-25T15:12:43.973Z,98889.40
2023-07-25T15:15:12.277Z,98863.30
2023-07-25T15:17:40.194Z,98840.39
2023-07-25T15:20:11.519Z,98834.03
2023-07-25T15:22:41.240Z,98823.77
2023-07-25T15:25:09.404Z,98821.52
2023-07-25T15:27:37.235Z,98830.23
2023-07-25T15:30:05.561Z,98833.54
2023-07-25T15:32:33.634Z,98850.13
2023-07-25T15:35:01.433Z,98877.79
2023-07-25T15:37:29.286Z,98880.61
2023-07-25T15:39:57.778Z,98882.63
2023-07-25T15:42:25.576Z,98865.90
2023-07-25T15:44:53.622Z,98862.89
2023-07-25T15:47:22.132Z,98863.10
2023-07-25T15:49:49.823Z,98878.44
2023-07-25T15:52:17.514Z,98900.77
2023-07-25T15:54:45.275Z,98920.63
2023-07-25T15:57:13.461Z,98929.89
2023-07-25T15:59:41.783Z,98942.98
2023-07-25T16:02:09.906Z,98954.64
2023-07-25T16:04:37.731Z,98963.29
2023-07-25T16:07:06.047Z,98981.87
2023-07-25T16:09:34.065Z,98999.09
2023-07-25T16:12:02.200Z,99032.96
2023-07-25T16:14:30.023Z,99035.35
2023-07-25T16:16:58.110Z,98975.02
2023-07-25T16:19:27.179Z,98994.24
2023-07-25T16:21:55.229Z,99052.41
2023-07-25T16:24:22.888Z,98982.91
2023-07-25T16:26:50.635Z,98885.85
2023-07-25T16:29:18.925Z,98849.98
2023-07-25T16:31:48.322Z,98834.85
2023-07-25T16:34:19.188Z,98845.09
2023-07-25T16:36:47.101Z,98889.20
2023-07-25T16:39:15.020Z,98937.05
2023-07-25T16:41:42.945Z,98957.70
2023-07-25T16:44:10.930Z,98974.91
2023-07-25T16:46:38.944Z,98932.35
2023-07-25T16:49:07.064Z,98908.52
2023-07-25T16:51:34.988Z,98943.10
2023-07-25T16:54:03.328Z,98959.81
2023-07-25T16:56:31.790Z,98924.29
2023-07-25T16:59:00.406Z,98852.92
2023-07-25T17:01:28.343Z,98839.67
2023-07-25T17:03:56.435Z,98829.03
2023-07-25T17:06:24.534Z,98822.06
2023-07-25T17:08:52.565Z,98842.37
2023-07-25T17:11:20.749Z,98848.61
2023-07-25T17:13:48.547Z,98871.45
2023-07-25T17:16:16.986Z,98886.83
2023-07-25T17:18:44.947Z,98924.26
2023-07-25T17:21:14.859Z,98944.39
2023-07-25T17:23:46.391Z,98942.05
2023-07-25T17:26:14.540Z,98951.73
2023-07-25T17:28:42.380Z,98935.19
2023-07-25T17:31:10.788Z,98922.50
2023-07-25T17:33:41.807Z,98901.87
2023-07-25T17:36:09.608Z,98904.56
2023-07-25T17:38:37.420Z,98922.81
2023-07-25T17:41:06.045Z,98949.39
2023-07-25T17:43:34.141Z,98960.96
2023-07-25T17:46:01.832Z,98973.89
2023-07-25T17:48:29.501Z,98993.19
2023-07-25T17:50:57.431Z,98993.78
2023-07-25T17:53:25.467Z,98975.67
2023-07-25T17:55:55.700Z,98965.22
2023-07-25T17:58:23.594Z,98957.88
2023-07-25T18:00:52.046Z,98962.89
2023-07-25T18:03:20.074Z,98970.95
2023-07-25T18:05:48.678Z,98980.30
2023-07-25T18:08:19.962Z,98983.73
2023-07-25T18:14:58.931Z,99011.79
2023-07-25T18:17:35.648Z,99037.40
2023-07-25T18:20:03.942Z,99033.44
2023-07-25T18:22:32.790Z,99014.99
2023-07-25T18:25:09.067Z,99020.27
2023-07-25T18:27:51.334Z,99023.77
2023-07-25T18:30:23.186Z,99016.70
2023-07-25T18:32:51.298Z,99008.85
2023-07-25T18:35:19.801Z,99012.44
2023-07-25T18:38:08.635Z,99006.46
2023-07-25T18:40:44.505Z,99013.05
2023-07-25T18:43:20.746Z,99020.44
2023-07-25T18:45:49.564Z,99019.95
2023-07-25T18:48:17.274Z,99019.59
2023-07-25T18:50:45.557Z,98990.86
2023-07-25T18:53:13.408Z,98967.59
2023-07-25T18:55:41.792Z,98943.88
2023-07-25T18:58:10.020Z,98927.87
2023-07-25T19:00:38.261Z,98941.21
2023-07-25T19:03:06.413Z,98956.23
2023-07-25T19:05:34.414Z,98948.51
2023-07-25T19:08:02.466Z,98959.02
2023-07-25T19:10:30.442Z,98989.36
2023-07-25T19:12:58.628Z,99006.08
2023-07-25T19:15:27.168Z,99011.58
2023-07-25T19:17:54.978Z,99006.45
2023-07-25T19:20:23.221Z,98998.41
2023-07-25T19:22:51.375Z,98985.94
2023-07-25T19:25:19.180Z,98984.27
2023-07-25T19:27:49.513Z,98972.63
2023-07-25T19:30:17.514Z,98968.98
2023-07-25T19:32:45.380Z,98981.70
2023-07-25T19:35:13.559Z,98998.16
2023-07-25T19:37:41.476Z,99004.95
2023-07-25T19:40:09.458Z,99021.60
2023-07-25T19:42:38.566Z,99036.62
2023-07-25T19:45:06.690Z,99046.64
2023-07-25T19:47:34.908Z,99044.72
2023-07-25T19:50:03.072Z,99035.86
2023-07-25T19:52:30.842Z,99037.76
2023-07-25T19:54:59.132Z,99041.59
2023-07-25T19:57:27.263Z,99029.75
2023-07-25T19:59:55.055Z,99032.61
2023-07-25T20:02:23.386Z,99029.88
2023-07-25T20:04:51.462Z,99039.98
2023-07-25T20:07:19.239Z,99042.86
2023-07-25T20:09:47.026Z,99040.88
2023-07-25T20:12:15.173Z,99030.09
2023-07-25T20:14:43.224Z,99012.88
2023-07-25T20:17:11.213Z,99005.05
2023-07-25T20:19:38.813Z,99004.37
2023-07-25T20:22:06.641Z,99015.66
2023-07-25T20:24:34.592Z,98992.81
2023-07-25T20:27:02.380Z,98976.15
2023-07-25T20:29:30.480Z,98972.10
2023-07-25T20:31:59.813Z,98968.91
2023-07-25T20:34:28.358Z,98958.23
2023-07-25T20:36:57.224Z,98965.42
2023-07-25T20:39:24.999Z,98974.20
2023-07-25T20:41:52.941Z,98975.20
2023-07-25T20:44:21.337Z,98979.22
2023-07-25T20:46:49.125Z,98980.95
2023-07-25T20:49:17.051Z,98980.05
2023-07-25T20:51:45.124Z,98959.93
2023-07-25T20:54:13.462Z,98938.45
2023-07-25T20:56:41.212Z,98942.80
2023-07-25T20:59:09.972Z,98940.65
2023-07-25T21:01:38.153Z,98928.67
2023-07-25T21:04:06.174Z,98943.77
2023-07-25T21:06:34.406Z,98945.88
2023-07-25T21:09:02.378Z,98934.98
2023-07-25T21:11:30.358Z,98931.60
2023-07-25T21:13:58.430Z,98933.96
2023-07-25T21:16:26.311Z,98923.52
2023-07-25T21:18:54.280Z,98912.16
2023-07-25T21:21:22.187Z,98887.72
2023-07-25T21:23:49.989Z,98878.11
2023-07-25T21:26:18.040Z,98878.23
2023-07-25T21:28:46.116Z,98871.05
2023-07-25T21:31:13.975Z,98867.81
2023-07-25T21:33:42.106Z,98870.36
2023-07-25T21:36:11.409Z,98880.63
2023-07-25T21:38:40.108Z,98882.76
2023-07-25T21:41:09.001Z,98888.01
2023-07-25T21:43:37.067Z,98886.94
2023-07-25T21:46:05.121Z,98884.28
2023-07-25T21:48:32.965Z,98883.75
2023-07-25T21:51:01.173Z,98887.98
2023-07-25T21:53:29.852Z,98888.61
2023-07-25T21:55:58.223Z,98896.52
2023-07-25T21:58:27.143Z,98904.23
2023-07-25T22:00:59.036Z,98905.07
2023-07-25T22:03:29.290Z,98903.67
2023-07-25T22:05:58.231Z,98901.38
2023-07-25T22:08:26.263Z,98893.27
2023-07-25T22:10:54.547Z,98893.42
2023-07-25T22:13:22.867Z,98896.15
2023-07-25T22:15:51.479Z,98902.27
2023-07-25T22:18:19.914Z,98918.23
2023-07-25T22:20:52.503Z,98935.95
2023-07-25T22:23:21.922Z,98950.44
2023-07-25T22:25:50.015Z,98959.06
2023-07-25T22:28:17.825Z,98958.63
2023-07-25T22:30:45.821Z,98949.79
2023-07-25T22:33:13.664Z,98950.09
2023-07-25T22:35:41.758Z,98949.05
2023-07-25T22:38:10.369Z,98953.56
2023-07-25T22:40:38.934Z,98963.93
2023-07-25T22:43:07.102Z,98969.39
2023-07-25T22:45:35.321Z,98972.14
2023-07-25T22:48:03.479Z,98966.30
2023-07-25T22:50:31.670Z,98962.84
2023-07-25T22:53:00.033Z,98962.08
2023-07-25T22:55:28.239Z,98955.36
2023-07-25T22:57:56.312Z,98945.90
2023-07-25T23:00:24.542Z,98949.36
2023-07-25T23:02:53.151Z,98944.34
2023-07-25T23:05:21.096Z,98941.31
2023-07-25T23:07:49.164Z,98954.81
2023-07-25T23:10:17.549Z,98948.93
2023-07-25T23:12:45.500Z,98931.45
2023-07-25T23:15:14.719Z,98929.68
2023-07-25T23:17:42.640Z,98931.48
2023-07-25T23:20:10.678Z,98924.84
2023-07-25T23:22:38.490Z,98914.63
2023-07-25T23:25:06.512Z,98917.68
2023-07-25T23:27:34.484Z,98914.88
2023-07-25T23:30:02.628Z,98908.73
2023-07-25T23:32:30.389Z,98898.86
2023-07-25T23:34:58.243Z,98891.26
2023-07-25T23:37:26.411Z,98883.07
2023-07-25T23:39:54.659Z,98873.92
2023-07-25T23:42:22.920Z,98861.15
2023-07-25T23:44:50.738Z,98846.80
2023-07-25T23:47:18.685Z,98836.55
2023-07-25T23:49:46.401Z,98830.70
2023-07-25T23:52:14.221Z,98815.35
2023-07-25T23:54:42.332Z,98807.20
2023-07-25T23:57:10.741Z,98810.46
2023-07-25T23:59:38.934Z,98810.69
